Time;durP1;ratioP1;P1;durP2;ratioP2;P2;SDS_P1;SDS_P2;PMS_P1;PMS_P2;Temp;Humidity;BMP_temperature;BMP_pressure;BME280_temperature;BME280_humidity;BME280_pressure;Samples;Min_cycle;Max_cycle;Signal;HPM_P1;HPM_P2
2023/04/15 00:00:45;;;;;;;15.70;7.17;;;5.80;99.90;;;;;;5034101;28;20052;-82
2023/04/15 00:03:11;;;;;;;16.13;7.53;;;5.70;99.90;;;;;;5031852;28;20046;-81
2023/04/15 00:05:37;;;;;;;14.37;7.10;;;5.70;99.90;;;;;;5035062;28;20130;-81
2023/04/15 00:08:03;;;;;;;17.00;7.70;;;5.70;99.90;;;;;;5034260;28;20127;-81
2023/04/15 00:10:28;;;;;;;15.43;8.40;;;5.60;99.90;;;;;;5034198;28;20055;-82
2023/04/15 00:12:54;;;;;;;14.30;7.67;;;5.60;99.90;;;;;;5034738;28;20452;-82
2023/04/15 00:15:20;;;;;;;16.10;7.50;;;5.60;99.90;;;;;;5034425;28;20045;-82
2023/04/15 00:17:45;;;;;;;15.83;7.97;;;5.60;99.90;;;;;;5033313;28;20037;-81
2023/04/15 00:20:11;;;;;;;15.60;7.97;;;5.60;99.90;;;;;;5034489;28;20091;-81
2023/04/15 00:22:37;;;;;;;17.47;7.50;;;5.60;99.90;;;;;;5034008;28;20033;-81
2023/04/15 00:25:03;;;;;;;14.10;7.10;;;5.60;99.90;;;;;;5023996;28;20041;-82
2023/04/15 00:27:29;;;;;;;16.57;7.73;;;5.60;99.90;;;;;;5034524;28;20053;-82
2023/04/15 00:29:55;;;;;;;13.87;7.33;;;5.60;99.90;;;;;;5015601;28;20042;-82
2023/04/15 00:32:20;;;;;;;14.20;7.70;;;5.60;99.90;;;;;;5034351;28;20462;-82
2023/04/15 00:34:46;;;;;;;16.17;7.60;;;5.60;99.90;;;;;;5016394;28;20453;-82
2023/04/15 00:37:12;;;;;;;15.50;7.50;;;5.50;99.90;;;;;;5033570;28;20041;-82
2023/04/15 00:39:38;;;;;;;16.10;7.60;;;5.40;99.90;;;;;;5034306;28;20099;-82
2023/04/15 00:42:04;;;;;;;14.67;7.50;;;5.50;99.90;;;;;;5033069;28;20441;-82
2023/04/15 00:44:29;;;;;;;14.97;7.37;;;5.40;99.90;;;;;;5031938;28;20041;-82
2023/04/15 00:46:56;;;;;;;16.80;8.20;;;5.40;99.90;;;;;;5034041;28;20060;-82
2023/04/15 00:49:22;;;;;;;14.90;7.50;;;5.30;99.90;;;;;;5032876;28;20073;-82
2023/04/15 00:51:47;;;;;;;16.70;7.80;;;5.30;99.90;;;;;;5033878;28;20072;-82
2023/04/15 00:54:13;;;;;;;15.67;7.67;;;5.30;99.90;;;;;;5031498;28;20111;-82
2023/04/15 00:56:39;;;;;;;14.57;7.70;;;5.20;99.90;;;;;;5033176;28;20088;-82
2023/04/15 00:59:06;;;;;;;14.60;7.63;;;5.20;99.90;;;;;;5031449;28;20083;-82
2023/04/15 01:01:36;;;;;;;17.17;8.50;;;5.20;99.90;;;;;;5033030;28;20128;-82
2023/04/15 01:04:03;;;;;;;16.87;8.30;;;5.20;99.90;;;;;;5032303;28;20173;-82
2023/04/15 01:06:29;;;;;;;18.17;8.47;;;5.10;99.90;;;;;;5032759;28;20053;-82
2023/04/15 01:08:56;;;;;;;16.37;7.87;;;5.10;99.90;;;;;;5032193;28;20060;-82
2023/04/15 01:11:22;;;;;;;17.00;8.20;;;5.00;99.90;;;;;;5032738;28;20045;-81
2023/04/15 01:13:49;;;;;;;15.43;8.53;;;5.00;99.90;;;;;;5031372;28;20057;-82
2023/04/15 01:16:16;;;;;;;17.07;8.70;;;5.00;99.90;;;;;;5032234;28;20500;-82
2023/04/15 01:18:42;;;;;;;17.53;8.57;;;5.00;99.90;;;;;;5033038;28;20053;-82
2023/04/15 01:21:07;;;;;;;17.83;8.57;;;4.90;99.90;;;;;;5031944;28;20046;-82
2023/04/15 01:23:36;;;;;;;15.83;8.83;;;4.90;99.90;;;;;;5033540;28;20124;-82
2023/04/15 01:26:02;;;;;;;15.33;8.77;;;4.90;99.90;;;;;;5031354;28;20084;-82
2023/04/15 01:28:28;;;;;;;18.20;9.17;;;5.60;99.90;;;;;;5031775;28;20088;-82
2023/04/15 01:31:12;;;;;;;15.00;8.60;;;4.80;99.90;;;;;;5033459;28;20105;-82
2023/04/15 01:33:39;;;;;;;15.55;9.32;;;4.90;99.90;;;;;;5032829;28;20042;-82
2023/04/15 01:36:07;;;;;;;16.43;9.90;;;5.90;99.90;;;;;;5031806;28;20045;-82
2023/04/15 01:38:33;;;;;;;17.30;9.57;;;4.80;99.90;;;;;;5031772;28;20045;-82
2023/04/15 01:40:58;;;;;;;18.23;10.10;;;4.80;99.90;;;;;;5030198;28;20037;-82
2023/04/15 01:43:25;;;;;;;17.87;9.97;;;4.80;99.90;;;;;;5031823;28;20045;-82
2023/04/15 01:45:51;;;;;;;18.73;9.37;;;4.80;99.90;;;;;;5032115;28;20132;-82
2023/04/15 01:48:17;;;;;;;19.47;9.77;;;4.70;99.90;;;;;;5030590;28;20132;-82
2023/04/15 01:50:44;;;;;;;17.23;9.73;;;4.80;99.90;;;;;;5031775;28;20532;-82
2023/04/15 01:53:10;;;;;;;19.40;9.27;;;4.70;99.90;;;;;;5032552;28;20049;-82
2023/04/15 01:55:36;;;;;;;18.63;9.87;;;4.70;99.90;;;;;;5030326;28;20045;-82
2023/04/15 01:58:02;;;;;;;17.47;9.43;;;4.70;99.90;;;;;;5031313;28;20111;-82
2023/04/15 02:00:27;;;;;;;20.07;10.07;;;4.70;99.90;;;;;;5033131;28;20393;-82
2023/04/15 02:02:53;;;;;;;17.80;9.47;;;4.70;99.90;;;;;;5030599;28;20045;-82
2023/04/15 02:05:19;;;;;;;17.87;9.57;;;4.70;99.90;;;;;;5030622;28;20401;-82
2023/04/15 02:07:45;;;;;;;17.93;9.97;;;4.80;99.90;;;;;;5031551;28;20375;-82
2023/04/15 02:10:12;;;;;;;18.17;9.60;;;4.80;99.90;;;;;;5030133;28;20136;-82
2023/04/15 02:12:38;;;;;;;16.83;9.70;;;4.70;99.90;;;;;;5032687;28;20090;-82
2023/04/15 02:15:07;;;;;;;17.47;9.90;;;4.70;99.90;;;;;;5031684;28;20041;-81
2023/04/15 02:17:34;;;;;;;18.93;10.10;;;4.70;99.90;;;;;;5032421;28;20083;-81
2023/04/15 02:20:07;;;;;;;18.60;9.77;;;4.70;99.90;;;;;;5030784;28;20098;-82
2023/04/15 02:22:33;;;;;;;18.07;9.10;;;4.70;99.90;;;;;;5030764;28;20120;-82
2023/04/15 02:24:58;;;;;;;19.57;9.93;;;4.70;99.90;;;;;;5030550;28;20203;-82
2023/04/15 02:27:25;;;;;;;17.37;9.47;;;4.60;99.90;;;;;;5032066;28;20042;-82
2023/04/15 02:29:51;;;;;;;17.83;9.93;;;5.30;99.90;;;;;;5030559;28;20124;-81
2023/04/15 02:32:20;;;;;;;18.20;9.83;;;4.60;99.90;;;;;;5030721;28;20049;-82
2023/04/15 02:34:46;;;;;;;18.60;10.50;;;4.50;99.90;;;;;;5024352;28;20079;-82
2023/04/15 02:37:13;;;;;;;18.00;10.10;;;4.50;99.90;;;;;;5031011;28;20041;-82
2023/04/15 02:39:38;;;;;;;17.47;9.83;;;4.40;99.90;;;;;;5031431;28;20076;-82
2023/04/15 02:42:07;;;;;;;19.10;9.67;;;4.40;99.90;;;;;;5032427;28;20473;-82
2023/04/15 02:44:35;;;;;;;19.70;9.60;;;4.30;99.90;;;;;;5031446;28;20037;-82
2023/04/15 02:47:00;;;;;;;18.87;9.93;;;4.30;99.90;;;;;;5030975;28;20489;-82
2023/04/15 02:49:28;;;;;;;18.30;9.50;;;4.20;99.90;;;;;;5027253;28;20056;-82
2023/04/15 02:51:54;;;;;;;16.47;8.97;;;4.20;99.90;;;;;;5013860;28;20084;-82
2023/04/15 02:54:24;;;;;;;17.67;9.77;;;4.20;99.90;;;;;;5019734;28;20095;-82
2023/04/15 02:56:51;;;;;;;22.07;11.23;;;4.20;99.90;;;;;;5031222;28;20480;-82
2023/04/15 02:59:16;;;;;;;18.03;10.10;;;4.10;99.90;;;;;;5031225;28;20057;-82
2023/04/15 03:01:42;;;;;;;17.43;9.73;;;4.10;99.90;;;;;;5031050;28;20432;-82
2023/04/15 03:04:08;;;;;;;20.13;10.07;;;4.10;99.90;;;;;;5029634;28;20048;-82
2023/04/15 03:06:34;;;;;;;17.13;10.03;;;4.00;99.90;;;;;;5032890;28;20449;-82
2023/04/15 03:09:01;;;;;;;18.03;9.77;;;4.00;99.90;;;;;;5035853;28;20121;-82
2023/04/15 03:11:28;;;;;;;20.60;10.13;;;3.90;99.90;;;;;;5034616;28;20552;-82
2023/04/15 03:13:57;;;;;;;20.87;9.93;;;3.90;99.90;;;;;;5036044;28;20088;-82
2023/04/15 03:16:23;;;;;;;18.30;9.67;;;3.80;99.90;;;;;;5018141;28;20044;-82
2023/04/15 03:18:49;;;;;;;18.50;10.47;;;3.80;99.90;;;;;;5017371;28;20124;-82
2023/04/15 03:21:15;;;;;;;19.40;10.93;;;3.80;99.90;;;;;;5035954;28;20129;-82
2023/04/15 03:23:40;;;;;;;22.63;11.30;;;3.70;99.90;;;;;;5036077;28;20040;-82
2023/04/15 03:26:06;;;;;;;20.73;10.50;;;3.70;99.90;;;;;;5034848;28;20464;-82
2023/04/15 03:28:32;;;;;;;20.17;11.53;;;3.70;99.90;;;;;;5017757;28;20053;-82
2023/04/15 03:30:58;;;;;;;21.10;11.33;;;3.60;99.90;;;;;;5035789;28;20543;-82
2023/04/15 03:33:24;;;;;;;20.07;12.33;;;3.60;99.90;;;;;;5034624;28;20038;-82
2023/04/15 03:35:50;;;;;;;22.77;11.80;;;3.60;99.90;;;;;;5035824;28;20052;-82
2023/04/15 03:38:17;;;;;;;22.73;11.90;;;3.50;99.90;;;;;;5035396;28;20091;-82
2023/04/15 03:40:43;;;;;;;19.10;11.70;;;3.50;99.90;;;;;;5034353;28;20484;-82
2023/04/15 03:43:08;;;;;;;19.93;12.07;;;3.40;99.90;;;;;;5035523;28;20041;-82
2023/04/15 03:45:34;;;;;;;19.53;12.13;;;3.40;99.90;;;;;;5034065;28;20041;-82
2023/04/15 03:48:00;;;;;;;20.87;12.20;;;3.40;99.90;;;;;;5032754;28;20439;-82
2023/04/15 03:50:26;;;;;;;22.33;11.90;;;3.40;99.90;;;;;;5030807;28;20041;-82
2023/04/15 03:52:52;;;;;;;23.93;12.63;;;3.40;99.90;;;;;;5034357;28;20034;-82
2023/04/15 03:55:20;;;;;;;21.87;11.40;;;3.30;99.90;;;;;;5032585;28;20104;-82
2023/04/15 03:57:46;;;;;;;21.47;12.23;;;4.00;99.90;;;;;;5033239;28;20038;-82
2023/04/15 04:00:12;;;;;;;20.80;12.87;;;3.30;99.90;;;;;;5032766;28;20068;-82
2023/04/15 04:02:38;;;;;;;22.50;12.20;;;3.20;99.90;;;;;;5031556;28;20110;-82
2023/04/15 04:05:04;;;;;;;20.23;12.27;;;3.20;99.90;;;;;;5025568;28;20509;-82
2023/04/15 04:07:31;;;;;;;22.43;11.87;;;3.20;99.90;;;;;;5032465;28;20430;-82
2023/04/15 04:09:57;;;;;;;21.60;12.23;;;3.20;99.90;;;;;;5034459;28;20045;-82
2023/04/15 04:12:22;;;;;;;23.07;12.27;;;3.20;99.90;;;;;;5035141;28;20087;-82
2023/04/15 04:14:48;;;;;;;22.40;12.57;;;3.10;99.90;;;;;;5034329;28;20444;-82
2023/04/15 04:17:13;;;;;;;25.07;12.77;;;3.10;99.90;;;;;;5032547;28;20046;-82
2023/04/15 04:19:39;;;;;;;22.67;12.43;;;3.10;99.90;;;;;;5035027;28;20050;-82
2023/04/15 04:22:05;;;;;;;21.57;11.77;;;3.00;99.90;;;;;;5032471;28;20374;-82
2023/04/15 04:24:31;;;;;;;22.47;12.57;;;3.00;99.90;;;;;;5032785;28;20079;-82
2023/04/15 04:26:56;;;;;;;24.53;12.37;;;3.00;99.90;;;;;;5033792;28;20096;-82
2023/04/15 04:29:22;;;;;;;23.50;13.03;;;2.90;99.90;;;;;;5033852;28;20049;-82
2023/04/15 04:31:48;;;;;;;22.30;13.23;;;2.90;99.90;;;;;;5020272;28;20045;-82
2023/04/15 04:34:15;;;;;;;26.13;13.60;;;2.90;99.90;;;;;;5016194;28;20042;-82
2023/04/15 04:36:40;;;;;;;23.30;13.17;;;2.90;99.90;;;;;;5033728;28;20037;-82
2023/04/15 04:39:06;;;;;;;22.73;13.07;;;2.90;99.90;;;;;;5016333;28;20072;-81
2023/04/15 04:41:32;;;;;;;25.93;14.23;;;2.90;99.90;;;;;;5032824;28;20519;-82
2023/04/15 04:43:58;;;;;;;27.67;13.80;;;2.90;99.90;;;;;;5033649;28;20160;-82
2023/04/15 04:46:23;;;;;;;28.40;15.73;;;3.00;99.90;;;;;;5034251;28;20546;-82
2023/04/15 04:48:49;;;;;;;30.50;15.17;;;3.00;99.90;;;;;;5033184;28;20052;-82
2023/04/15 04:51:14;;;;;;;30.80;15.17;;;3.10;99.90;;;;;;5032124;28;20045;-82
2023/04/15 04:53:41;;;;;;;30.20;15.17;;;3.20;99.90;;;;;;5033200;28;20143;-82
2023/04/15 04:56:07;;;;;;;31.37;15.13;;;3.20;99.90;;;;;;5032290;28;20045;-82
2023/04/15 04:58:33;;;;;;;29.13;15.20;;;3.20;99.90;;;;;;5033581;28;20045;-82
2023/04/15 05:00:58;;;;;;;32.90;16.53;;;3.30;99.90;;;;;;5033695;28;20049;-82
2023/04/15 05:03:24;;;;;;;29.97;15.13;;;3.40;99.90;;;;;;5033141;28;20501;-82
2023/04/15 05:05:50;;;;;;;29.60;15.07;;;3.40;99.90;;;;;;5029806;28;20075;-81
2023/04/15 05:08:16;;;;;;;30.03;15.70;;;3.50;99.90;;;;;;5030835;28;20041;-82
2023/04/15 05:10:41;;;;;;;31.13;16.20;;;3.60;99.90;;;;;;5021974;28;20748;-82
2023/04/15 05:13:07;;;;;;;28.13;14.37;;;3.60;99.90;;;;;;5015350;28;20048;-82
2023/04/15 05:15:33;;;;;;;26.30;14.73;;;3.70;99.90;;;;;;5015507;28;20132;-82
2023/04/15 05:17:59;;;;;;;32.50;16.90;;;3.80;99.90;;;;;;5032870;28;20044;-82
2023/04/15 05:20:25;;;;;;;29.27;14.90;;;3.80;99.90;;;;;;5015746;28;20397;-82
2023/04/15 05:22:50;;;;;;;30.37;15.60;;;3.80;99.90;;;;;;5015895;28;20050;-82
2023/04/15 05:25:16;;;;;;;28.27;14.80;;;3.90;99.90;;;;;;5015003;28;20045;-82
2023/04/15 05:27:42;;;;;;;27.87;14.83;;;4.00;99.90;;;;;;5034085;28;20528;-81
2023/04/15 05:30:08;;;;;;;26.87;14.00;;;4.00;99.90;;;;;;5032819;28;20455;-82
2023/04/15 05:32:34;;;;;;;28.13;14.17;;;4.00;99.90;;;;;;5031533;28;20046;-82
2023/04/15 05:34:59;;;;;;;27.03;14.93;;;4.10;99.90;;;;;;5031403;28;20048;-82
2023/04/15 05:37:25;;;;;;;27.73;13.87;;;4.10;99.90;;;;;;5032440;28;20056;-82
2023/04/15 05:39:51;;;;;;;27.47;13.90;;;4.20;99.90;;;;;;5031175;28;20457;-82
2023/04/15 05:42:17;;;;;;;25.60;13.60;;;4.30;99.90;;;;;;5033191;28;20045;-82
2023/04/15 05:44:42;;;;;;;27.27;14.00;;;4.30;99.90;;;;;;5031746;28;20042;-82
2023/04/15 05:47:09;;;;;;;26.10;14.07;;;4.40;99.90;;;;;;5030565;28;20054;-82
2023/04/15 05:49:35;;;;;;;29.03;15.37;;;4.40;99.90;;;;;;5032110;28;20050;-81
2023/04/15 05:52:00;;;;;;;25.33;14.10;;;4.50;99.90;;;;;;5032958;28;20051;-82
2023/04/15 05:54:26;;;;;;;27.97;13.83;;;4.50;99.90;;;;;;5030962;28;20045;-82
2023/04/15 05:56:52;;;;;;;28.13;14.17;;;4.60;99.90;;;;;;5032134;28;20374;-82
2023/04/15 05:59:18;;;;;;;28.00;13.83;;;4.70;99.90;;;;;;5033047;28;20072;-82
2023/04/15 06:01:44;;;;;;;24.80;13.10;;;4.70;99.90;;;;;;5014451;28;20045;-82
2023/04/15 06:04:10;;;;;;;31.97;15.13;;;4.80;99.90;;;;;;5014760;28;20049;-82
2023/04/15 06:06:37;;;;;;;31.17;14.97;;;4.90;99.90;;;;;;5014930;28;20099;-82
2023/04/15 06:09:02;;;;;;;24.83;12.97;;;5.00;99.90;;;;;;5031994;28;20048;-82
2023/04/15 06:14:02;;;;;;;27.33;13.50;;;5.10;99.90;;;;;;5030541;28;20045;-81
2023/04/15 06:16:28;;;;;;;28.70;14.80;;;5.20;99.90;;;;;;5032692;28;20520;-81
2023/04/15 06:18:57;;;;;;;28.33;14.00;;;5.30;99.90;;;;;;5032223;28;20199;-82
2023/04/15 06:21:22;;;;;;;28.17;13.77;;;4.50;99.90;;;;;;5031233;28;20208;-82
2023/04/15 06:23:48;;;;;;;25.80;13.07;;;5.40;99.90;;;;;;5031928;28;20135;-84
2023/04/15 06:26:13;;;;;;;27.00;13.93;;;5.50;99.90;;;;;;5032234;28;20044;-82
2023/04/15 06:28:39;;;;;;;26.53;13.70;;;5.50;99.90;;;;;;5033345;28;20505;-83
2023/04/15 06:31:05;;;;;;;24.47;12.70;;;5.60;99.90;;;;;;5032375;28;20045;-83
2023/04/15 06:33:31;;;;;;;26.57;13.73;;;6.30;99.90;;;;;;5034077;28;20050;-85
2023/04/15 06:35:56;;;;;;;23.93;12.63;;;5.60;99.90;;;;;;5032548;28;20038;-84
2023/04/15 06:38:22;;;;;;;24.27;12.47;;;5.70;99.90;;;;;;5032796;28;20068;-83
2023/04/15 06:40:47;;;;;;;23.43;12.40;;;5.80;99.90;;;;;;5031729;28;20052;-82
2023/04/15 06:43:14;;;;;;;25.50;12.50;;;5.80;99.90;;;;;;5032692;28;20038;-83
2023/04/15 06:45:39;;;;;;;24.17;12.00;;;5.90;99.90;;;;;;5031941;28;20041;-83
2023/04/15 06:48:05;;;;;;;19.80;10.50;;;6.00;99.90;;;;;;5031977;28;20047;-84
2023/04/15 06:50:37;;;;;;;21.83;11.68;;;6.10;99.90;;;;;;5031352;28;20384;-83
2023/04/15 06:53:03;;;;;;;21.10;11.10;;;5.90;99.90;;;;;;5033130;28;20049;-82
2023/04/15 06:55:28;;;;;;;23.10;12.05;;;5.90;99.90;;;;;;5033397;28;20041;-83
2023/04/15 06:58:06;;;;;;;25.00;11.80;;;7.10;99.90;;;;;;5033568;28;20049;-82
2023/04/15 07:00:32;;;;;;;21.07;10.93;;;6.40;99.90;;;;;;5032460;28;20050;-83
2023/04/15 07:03:04;;;;;;;20.77;11.13;;;6.10;99.90;;;;;;5031845;28;20106;-82
2023/04/15 07:05:46;;;;;;;19.40;10.15;;;5.90;99.90;;;;;;5030908;28;20045;-82
2023/04/15 07:08:12;;;;;;;20.08;10.30;;;6.60;99.90;;;;;;5090238;22;20099;-82
2023/04/15 07:11:00;;;;;;;20.27;10.40;;;7.40;99.90;;;;;;5016745;28;20099;-87
2023/04/15 07:13:26;;;;;;;20.38;10.80;;;6.00;99.90;;;;;;5032364;28;20096;-83
2023/04/15 07:16:04;;;;;;;18.55;9.20;;;6.20;99.90;;;;;;5030722;28;20053;-82
2023/04/15 07:18:30;;;;;;;19.83;9.32;;;6.80;99.90;;;;;;5031482;28;20052;-83
2023/04/15 07:20:56;;;;;;;21.67;10.05;;;8.00;99.90;;;;;;5030262;28;20053;-83
2023/04/15 07:23:37;;;;;;;19.20;9.88;;;7.70;99.90;;;;;;5030840;28;20079;-83
2023/04/15 07:26:03;;;;;;;17.90;9.45;;;8.20;99.90;;;;;;5029478;28;20064;-83
2023/04/15 07:28:37;;;;;;;16.13;8.80;;;8.30;99.90;;;;;;5030547;28;20041;-82
2023/04/15 07:31:03;;;;;;;16.90;8.38;;;7.30;99.90;;;;;;5031793;28;20049;-82
2023/04/15 07:33:28;;;;;;;17.58;9.02;;;8.40;99.90;;;;;;5031373;28;20042;-82
2023/04/15 07:35:54;;;;;;;16.60;8.52;;;7.10;99.90;;;;;;5031848;28;20104;-82
2023/04/15 07:38:35;;;;;;;14.40;7.07;;;7.10;99.90;;;;;;5030530;28;20072;-81
2023/04/15 07:41:01;;;;;;;14.68;7.50;;;7.40;99.90;;;;;;5029928;28;20033;-81
2023/04/15 07:43:31;;;;;;;15.13;7.28;;;7.30;99.90;;;;;;5030114;28;20148;-81
2023/04/15 07:45:56;;;;;;;13.50;6.72;;;7.20;99.90;;;;;;5029569;28;20080;-81
2023/04/15 07:48:34;;;;;;;13.73;6.60;;;7.50;99.90;;;;;;5031236;28;20045;-83
2023/04/15 07:50:59;;;;;;;12.80;6.03;;;7.30;99.90;;;;;;5013925;28;20106;-81
2023/04/15 07:53:25;;;;;;;13.02;6.15;;;7.80;99.90;;;;;;5014916;28;20046;-81
2023/04/15 07:55:57;;;;;;;13.45;6.18;;;7.90;99.90;;;;;;5017502;28;20087;-84
2023/04/15 07:58:29;;;;;;;14.70;6.00;;;8.00;99.90;;;;;;5017564;28;20045;-81
2023/04/15 08:01:13;;;;;;;13.07;6.20;;;9.20;99.90;;;;;;5016800;28;20046;-83
2023/04/15 08:03:54;;;;;;;12.52;6.10;;;7.40;99.90;;;;;;5017297;28;20132;-82
2023/04/15 08:06:23;;;;;;;16.95;6.88;;;8.40;99.90;;;;;;5034725;28;20068;-82
2023/04/15 08:08:55;;;;;;;14.90;6.30;;;8.30;99.90;;;;;;5033507;28;20096;-83
2023/04/15 08:11:25;;;;;;;15.60;6.15;;;7.70;99.90;;;;;;5017047;28;20037;-82
2023/04/15 08:14:00;;;;;;;13.77;6.68;;;8.90;99.90;;;;;;5016551;28;20511;-82
2023/04/15 08:16:35;;;;;;;13.75;5.75;;;8.70;99.90;;;;;;5016865;28;20045;-82
2023/04/15 08:19:13;;;;;;;13.32;5.97;;;9.20;99.90;;;;;;5034280;28;20045;-82
2023/04/15 08:21:51;;;;;;;12.23;6.03;;;8.60;99.90;;;;;;5033761;28;20081;-83
2023/04/15 08:24:20;;;;;;;11.35;5.20;;;10.00;99.90;;;;;;5033601;28;20037;-83
2023/04/15 08:27:20;;;;;;;12.07;5.25;;;8.60;99.90;;;;;;5042852;22;20076;-83
2023/04/15 08:30:07;;;;;;;13.02;5.53;;;8.10;99.90;;;;;;5012404;28;20133;-84
2023/04/15 08:32:54;;;;;;;11.55;5.45;;;8.80;99.90;;;;;;5014345;28;20095;-82
2023/04/15 08:35:20;;;;;;;10.75;5.00;;;8.70;99.90;;;;;;5011891;28;20049;-82
2023/04/15 08:37:54;;;;;;;11.20;4.70;;;9.40;99.90;;;;;;5014717;28;20064;-82
2023/04/15 08:40:56;;;;;;;11.27;4.97;;;9.00;99.90;;;;;;5013025;28;20439;-83
2023/04/15 08:43:40;;;;;;;10.93;4.70;;;10.20;99.90;;;;;;4992719;28;20042;-83
2023/04/15 08:46:15;;;;;;;10.15;4.18;;;10.40;99.90;;;;;;4998496;28;20121;-82
2023/04/15 08:48:55;;;;;;;9.95;4.13;;;9.40;99.90;;;;;;5012951;28;20050;-82
2023/04/15 08:51:28;;;;;;;9.88;4.20;;;10.70;99.90;;;;;;5012921;28;20037;-83
2023/04/15 08:54:03;;;;;;;9.55;4.43;;;9.20;99.90;;;;;;5014222;28;20053;-82
2023/04/15 08:56:44;;;;;;;9.77;4.65;;;10.30;99.90;;;;;;5012486;28;20046;-82
2023/04/15 08:59:16;;;;;;;10.10;5.00;;;10.00;99.90;;;;;;5013055;28;20042;-82
2023/04/15 09:01:55;;;;;;;11.90;4.32;;;9.90;99.90;;;;;;5012505;28;20050;-82
2023/04/15 09:04:39;;;;;;;10.63;4.63;;;9.80;99.90;;;;;;5011990;28;20057;-82
2023/04/15 09:07:23;;;;;;;9.70;4.40;;;10.40;99.90;;;;;;5012746;28;20092;-82
2023/04/15 09:10:04;;;;;;;;;;;9.10;99.90;;;;;;5012732;28;20498;-82
2023/04/15 09:12:50;;;;;;;9.50;4.28;;;9.10;99.90;;;;;;5013957;28;19975;-82
2023/04/15 09:15:16;;;;;;;9.98;4.40;;;9.40;99.90;;;;;;5012581;28;20111;-82
2023/04/15 09:17:55;;;;;;;9.70;4.28;;;9.70;99.90;;;;;;5013198;28;20065;-82
2023/04/15 09:20:21;;;;;;;10.20;4.40;;;9.50;99.90;;;;;;5012836;28;20049;-82
2023/04/15 09:22:50;;;;;;;8.75;3.85;;;10.30;99.90;;;;;;5012488;28;20085;-82
2023/04/15 09:25:37;;;;;;;8.80;4.07;;;10.40;99.90;;;;;;5009354;28;20066;-83
2023/04/15 09:28:03;;;;;;;10.05;4.20;;;11.00;99.90;;;;;;5011684;28;20073;-82
2023/04/15 09:30:29;;;;;;;10.73;4.20;;;9.40;99.90;;;;;;5013875;28;20058;-83
2023/04/15 09:33:09;;;;;;;9.57;4.30;;;10.90;99.90;;;;;;5011798;28;20056;-83
2023/04/15 09:35:35;;;;;;;10.00;4.32;;;8.80;99.90;;;;;;5012213;28;20490;-81
2023/04/15 09:38:08;;;;;;;9.75;4.18;;;11.00;99.90;;;;;;5011476;28;20482;-83
2023/04/15 09:40:40;;;;;;;9.88;3.95;;;10.90;99.90;;;;;;5012009;28;20538;-82
2023/04/15 09:43:07;;;;;;;11.95;4.05;;;9.80;99.90;;;;;;5012951;28;20041;-82
2023/04/15 09:45:53;;;;;;;10.18;3.38;;;9.90;99.90;;;;;;5010903;28;20060;-82
2023/04/15 09:48:36;;;;;;;9.52;3.80;;;10.40;99.90;;;;;;5009043;28;20046;-83
2023/04/15 09:51:02;;;;;;;8.90;3.63;;;10.00;99.90;;;;;;5011562;28;20045;-81
2023/04/15 09:53:40;;;;;;;10.50;3.53;;;9.60;99.90;;;;;;5010971;28;20046;-80
2023/04/15 09:56:23;;;;;;;9.85;3.80;;;10.60;99.90;;;;;;5009988;28;20052;-81
2023/04/15 09:58:56;;;;;;;9.20;3.85;;;9.50;99.90;;;;;;5011054;28;20121;-81
2023/04/15 10:01:41;;;;;;;10.00;3.95;;;10.70;99.90;;;;;;5010875;28;20081;-82
2023/04/15 10:04:19;;;;;;;8.75;3.47;;;9.80;99.90;;;;;;5011076;28;20100;-81
2023/04/15 10:07:39;;;;;;;9.10;3.75;;;10.00;99.90;;;;;;5009759;28;20042;-82
2023/04/15 10:10:20;;;;;;;;;;;9.10;99.90;;;;;;5011225;28;20379;-81
2023/04/15 10:12:58;;;;;;;8.65;3.40;;;10.80;99.90;;;;;;5011740;28;20383;-82
2023/04/15 10:15:25;;;;;;;9.45;3.63;;;9.70;99.90;;;;;;5011749;28;20099;-82
2023/04/15 10:17:57;;;;;;;11.10;3.60;;;10.80;99.90;;;;;;5011949;28;20042;-82
2023/04/15 10:20:23;;;;;;;8.80;3.58;;;9.20;99.90;;;;;;5011281;28;20046;-82
2023/04/15 10:23:01;;;;;;;10.38;3.83;;;9.50;99.90;;;;;;5012852;28;20037;-83
2023/04/15 10:25:28;;;;;;;9.38;3.40;;;10.60;99.90;;;;;;5010682;28;20120;-83
2023/04/15 10:28:00;;;;;;;8.98;3.40;;;10.50;99.90;;;;;;5011046;28;20133;-82
2023/04/15 10:30:26;;;;;;;10.10;3.28;;;10.60;99.90;;;;;;5011211;28;20084;-83
2023/04/15 10:32:53;;;;;;;9.60;3.55;;;9.80;99.90;;;;;;5012608;28;20071;-82
2023/04/15 10:35:20;;;;;;;11.70;3.70;;;9.50;99.90;;;;;;5010971;28;20045;-82
2023/04/15 10:37:46;;;;;;;8.82;3.63;;;11.10;99.90;;;;;;5011617;28;20533;-82
2023/04/15 10:40:30;;;;;;;9.00;3.22;;;9.60;99.90;;;;;;5011536;28;20077;-82
2023/04/15 10:43:05;;;;;;;9.05;3.20;;;9.50;99.90;;;;;;5012019;28;20087;-82
2023/04/15 10:45:35;;;;;;;8.77;3.25;;;10.10;99.90;;;;;;5011655;28;20061;-82
2023/04/15 10:48:20;;;;;;;8.55;3.10;;;9.40;99.90;;;;;;5011529;28;20085;-85
2023/04/15 10:51:01;;;;;;;7.72;2.90;;;9.40;99.90;;;;;;5011546;28;20057;-84
2023/04/15 10:53:30;;;;;;;9.07;3.15;;;10.80;99.90;;;;;;5012282;28;20042;-84
2023/04/15 10:56:03;;;;;;;10.10;3.58;;;10.50;99.90;;;;;;5011994;28;20042;-84
2023/04/15 10:58:42;;;;;;;9.80;3.60;;;9.30;99.90;;;;;;5011777;28;20129;-84
2023/04/15 11:01:08;;;;;;;8.68;3.40;;;9.00;99.90;;;;;;5012414;28;20092;-84
2023/04/15 11:03:50;;;;;;;9.32;3.63;;;10.30;99.90;;;;;;5010644;28;20034;-83
2023/04/15 11:06:16;;;;;;;9.88;3.67;;;9.00;99.90;;;;;;5010975;28;20053;-84
2023/04/15 11:09:04;;;;;;;10.45;3.70;;;9.00;99.90;;;;;;5011687;28;20049;-84
2023/04/15 11:12:08;;;;;;;11.00;3.90;;;9.20;99.90;;;;;;5011985;28;20069;-82
2023/04/15 11:14:46;;;;;;;10.80;3.17;;;8.70;99.90;;;;;;5012431;28;20494;-83
2023/04/15 11:17:11;;;;;;;9.68;3.33;;;9.20;99.90;;;;;;5011516;28;20529;-82
2023/04/15 11:19:38;;;;;;;8.95;3.33;;;9.20;99.90;;;;;;5012816;28;20073;-83
2023/04/15 11:22:10;;;;;;;8.57;3.10;;;9.30;99.90;;;;;;5010841;28;20049;-82
2023/04/15 11:24:45;;;;;;;9.98;3.15;;;9.30;99.90;;;;;;5012030;28;20048;-82
2023/04/15 11:27:20;;;;;;;9.13;3.10;;;9.20;99.90;;;;;;5011681;28;20062;-82
2023/04/15 11:29:48;;;;;;;9.25;3.13;;;9.20;99.90;;;;;;5015856;28;20124;-81
2023/04/15 11:32:14;;;;;;;7.75;2.85;;;9.20;99.90;;;;;;5013969;28;20150;-81
2023/04/15 11:34:40;;;;;;;8.30;2.63;;;9.20;99.90;;;;;;5015348;28;20042;-83
2023/04/15 11:37:06;;;;;;;7.32;2.72;;;9.10;99.90;;;;;;5015750;28;20042;-82
2023/04/15 11:39:32;;;;;;;8.98;3.00;;;9.10;99.90;;;;;;5056491;22;20116;-82
2023/04/15 11:41:58;;;;;;;9.60;3.00;;;9.10;99.90;;;;;;5057138;28;20083;-82
2023/04/15 11:44:24;;;;;;;8.77;2.80;;;9.10;99.90;;;;;;5075240;28;20044;-84
2023/04/15 11:47:07;;;;;;;8.38;2.92;;;9.30;99.90;;;;;;5056185;28;20044;-83
2023/04/15 11:49:37;;;;;;;8.00;2.72;;;9.20;99.90;;;;;;5067631;28;20136;-83
2023/04/15 11:52:11;;;;;;;8.57;2.80;;;10.30;99.90;;;;;;5070493;28;20139;-82
2023/04/15 11:54:46;;;;;;;8.13;2.85;;;9.10;99.90;;;;;;5073803;28;20143;-83
2023/04/15 11:57:12;;;;;;;8.93;3.10;;;10.40;99.90;;;;;;5074908;28;20454;-83
2023/04/15 11:59:42;;;;;;;9.27;3.00;;;10.20;99.90;;;;;;5072905;28;20072;-82
2023/04/15 12:02:12;;;;;;;8.05;3.20;;;9.30;99.90;;;;;;5073528;28;20041;-82
2023/04/15 12:04:38;;;;;;;9.55;3.10;;;9.40;99.90;;;;;;5073396;28;20043;-82
2023/04/15 12:07:05;;;;;;;8.48;2.88;;;9.30;99.90;;;;;;5072985;28;20052;-83
2023/04/15 12:09:53;;;;;;;8.82;3.28;;;10.30;99.90;;;;;;5074767;28;20040;-83
2023/04/15 12:12:39;;;;;;;8.48;2.70;;;8.50;99.90;;;;;;5073650;28;20041;-83
2023/04/15 12:15:08;;;;;;;8.63;2.97;;;9.10;99.90;;;;;;5071829;28;20052;-82
2023/04/15 12:17:34;;;;;;;9.30;2.88;;;9.10;99.90;;;;;;5069288;28;20094;-83
2023/04/15 12:20:00;;;;;;;9.35;2.50;;;9.00;99.90;;;;;;5065023;28;20041;-84
2023/04/15 12:22:25;;;;;;;7.82;2.63;;;9.90;99.90;;;;;;5065932;28;20032;-85
2023/04/15 12:25:06;;;;;;;9.57;3.00;;;8.90;99.90;;;;;;5074763;28;20042;-86
2023/04/15 12:27:59;;;;;;;10.07;2.92;;;9.10;99.90;;;;;;5072680;28;20511;-86
2023/04/15 12:30:50;;;;;;;8.90;2.97;;;10.40;99.90;;;;;;5026911;28;20049;-82
2023/04/15 12:33:16;;;;;;;12.30;3.30;;;9.00;99.90;;;;;;5036283;28;20477;-85
2023/04/15 12:35:41;;;;;;;10.07;2.92;;;10.60;99.90;;;;;;5034800;28;20040;-81
2023/04/15 12:38:09;;;;;;;10.88;3.58;;;9.20;99.90;;;;;;5036056;28;20423;-85
2023/04/15 12:40:35;;;;;;;10.13;3.03;;;9.10;99.90;;;;;;5036745;28;20057;-84
2023/04/15 12:43:00;;;;;;;9.05;2.90;;;9.10;99.90;;;;;;5035763;28;20057;-87
2023/04/15 12:45:26;;;;;;;10.15;2.60;;;9.00;99.90;;;;;;5036731;28;20045;-84
2023/04/15 12:47:51;;;;;;;10.32;3.00;;;9.00;99.90;;;;;;5054405;28;20033;-83
2023/04/15 12:50:17;;;;;;;7.35;2.60;;;9.60;99.90;;;;;;5035859;28;20045;-83
2023/04/15 12:52:43;;;;;;;10.50;2.63;;;8.90;99.90;;;;;;5036754;28;20406;-83
2023/04/15 12:55:08;;;;;;;7.43;2.70;;;8.80;99.90;;;;;;5035393;28;20048;-84
2023/04/15 12:57:34;;;;;;;11.60;3.40;;;8.80;99.90;;;;;;5036585;28;20052;-83
2023/04/15 12:59:59;;;;;;;10.63;3.20;;;8.70;99.90;;;;;;5054065;28;20040;-85